Time;durP1;ratioP1;P1;durP2;ratioP2;P2;SDS_P1;SDS_P2;PMS_P1;PMS_P2;Temp;Humidity;BMP_temperature;BMP_pressure;BME280_temperature;BME280_humidity;BME280_pressure;Samples;Min_cycle;Max_cycle;Signal;HPM_P1;HPM_P2
2022/11/20 00:02:22;;;;;;;10.50;4.22;;;;;;;17.43;99.59;99494.91;5067749;28;20040;-30
2022/11/20 00:04:47;;;;;;;11.55;4.47;;;;;;;17.56;99.52;99512.34;5067647;28;20105;-30
2022/11/20 00:07:13;;;;;;;10.90;4.03;;;;;;;17.45;99.90;99510.81;5086062;28;20047;-29
2022/11/20 00:09:38;;;;;;;14.65;4.40;;;;;;;17.57;99.51;99505.06;5085627;28;20039;-31
2022/11/20 00:12:04;;;;;;;18.90;4.47;;;;;;;17.52;99.74;99491.63;5085632;28;20559;-30
2022/11/20 00:14:29;;;;;;;13.73;4.57;;;;;;;17.60;99.82;99515.31;5066790;28;20035;-28
2022/11/20 00:16:55;;;;;;;14.60;4.32;;;;;;;17.42;100.00;99509.47;5085983;28;20020;-29
2022/11/20 00:19:20;;;;;;;8.45;3.78;;;;;;;17.33;100.00;99515.72;5085690;28;20028;-34
2022/11/20 00:21:45;;;;;;;9.07;3.88;;;;;;;17.41;100.00;99507.06;5085410;28;20484;-28
2022/11/20 00:24:11;;;;;;;17.60;4.40;;;;;;;17.50;100.00;99520.75;5085884;28;20028;-32
2022/11/20 00:26:37;;;;;;;17.70;4.30;;;;;;;17.44;100.00;99493.00;5085544;28;20028;-28
2022/11/20 00:29:03;;;;;;;15.55;4.07;;;;;;;17.52;100.00;99505.91;5086194;28;20402;-28
2022/11/20 00:31:30;;;;;;;12.65;3.85;;;;;;;17.46;100.00;99512.41;5085572;28;20052;-33
2022/11/20 00:33:55;;;;;;;11.48;3.63;;;;;;;17.35;100.00;99502.78;5067328;28;20032;-31
2022/11/20 00:36:23;;;;;;;12.40;4.13;;;;;;;17.33;100.00;99502.25;5085740;28;20038;-28
2022/11/20 00:38:59;;;;;;;10.95;4.60;;;;;;;17.29;100.00;99490.41;5067605;28;20032;-28
2022/11/20 00:41:25;;;;;;;12.75;4.82;;;;;;;17.26;100.00;99484.50;5085805;28;20059;-32
2022/11/20 00:43:52;;;;;;;13.35;5.10;;;;;;;17.44;100.00;99511.88;5085233;28;20032;-29
2022/11/20 00:46:21;;;;;;;12.38;3.97;;;;;;;17.46;100.00;99510.50;5067401;28;20111;-28
2022/11/20 00:48:46;;;;;;;11.75;4.18;;;;;;;17.41;100.00;99507.06;5085204;28;20059;-28
2022/11/20 00:51:18;;;;;;;14.82;3.50;;;;;;;17.42;100.00;99514.03;5085825;28;20043;-28
2022/11/20 00:53:44;;;;;;;14.90;4.78;;;;;;;17.36;100.00;99507.06;5085416;28;20029;-28
2022/11/20 00:56:12;;;;;;;13.10;4.20;;;;;;;17.43;100.00;99510.28;5067235;28;20028;-29
2022/11/20 00:58:40;;;;;;;9.98;3.67;;;;;;;17.44;99.96;99528.06;5085567;28;20020;-29
2022/11/20 01:01:18;;;;;;;11.98;4.50;;;;;;;17.40;99.48;99502.75;5085280;28;20107;-30
2022/11/20 01:03:47;;;;;;;;;;;;;;;17.60;99.57;99526.88;5085468;28;20422;-32
2022/11/20 01:06:14;;;;;;;14.38;4.45;;;;;;;17.55;99.74;99518.84;5085737;28;19919;-29
2022/11/20 01:08:40;;;;;;;12.07;4.15;;;;;;;17.39;100.00;99520.00;5067071;28;20091;-29
2022/11/20 01:11:17;;;;;;;10.68;3.35;;;;;;;17.34;100.00;99525.41;5067027;28;20165;-34
2022/11/20 01:13:44;;;;;;;14.52;4.18;;;;;;;17.44;100.00;99504.59;5084778;28;20110;-32
2022/11/20 01:16:23;;;;;;;12.60;4.13;;;;;;;17.47;99.70;99508.66;5067301;28;20032;-29
2022/11/20 01:18:51;;;;;;;9.85;2.60;;;;;;;17.42;100.00;99497.88;5085317;28;20032;-29
2022/11/20 01:21:21;;;;;;;14.25;3.60;;;;;;;17.51;99.66;99492.69;5085372;28;20058;-28
2022/11/20 01:23:47;;;;;;;9.00;2.95;;;;;;;17.51;99.13;99490.81;5084984;28;20028;-28
2022/11/20 01:26:16;;;;;;;10.55;3.55;;;;;;;17.53;99.14;99488.66;5067926;28;20081;-28
2022/11/20 01:28:42;;;;;;;14.57;3.65;;;;;;;17.49;99.46;99482.22;5070595;28;20133;-32
2022/11/20 01:31:18;;;;;;;11.43;3.47;;;;;;;17.48;98.86;99496.75;5089014;28;20051;-30
2022/11/20 01:33:44;;;;;;;12.02;3.80;;;;;;;17.47;98.91;99489.78;5088601;28;20035;-28
2022/11/20 01:36:11;;;;;;;11.85;3.70;;;;;;;17.45;98.50;99476.56;5070350;28;20028;-29
2022/11/20 01:38:37;;;;;;;12.85;3.53;;;;;;;17.52;98.03;99481.63;5088478;28;20103;-30
2022/11/20 01:41:03;;;;;;;10.40;3.22;;;;;;;17.47;98.20;99468.22;5069814;28;20028;-31
2022/11/20 01:43:28;;;;;;;9.80;3.38;;;;;;;17.50;98.32;99496.50;5088375;28;20556;-30
2022/11/20 01:46:06;;;;;;;12.05;3.25;;;;;;;17.55;98.39;99485.66;5088298;28;20036;-29
2022/11/20 01:48:47;;;;;;;10.45;3.13;;;;;;;17.46;98.39;99477.38;5088121;28;20048;-29
2022/11/20 01:51:42;;;;;;;9.77;2.90;;;;;;;17.53;98.02;99483.25;5069680;28;20038;-28
2022/11/20 01:54:15;;;;;;;13.25;3.40;;;;;;;17.44;98.42;99469.56;5077951;28;20048;-29
2022/11/20 01:56:44;;;;;;;13.20;3.28;;;;;;;17.52;98.37;99475.44;5069955;28;20059;-34
2022/11/20 01:59:12;;;;;;;13.82;4.18;;;;;;;17.35;99.44;99479.31;5087875;28;20035;-31
2022/11/20 02:01:38;;;;;;;;;;;;;;;17.56;97.60;99476.50;5070171;28;20040;-30
2022/11/20 02:04:05;;;;;;;15.38;4.57;;;;;;;17.45;97.68;99459.59;5069809;28;19904;-29
2022/11/20 02:06:39;;;;;;;9.25;3.50;;;;;;;17.27;98.59;99463.72;5088517;28;20035;-36
2022/11/20 02:09:05;;;;;;;9.60;3.00;;;;;;;17.14;99.16;99465.16;5070009;28;20648;-29
2022/11/20 02:11:31;;;;;;;11.30;3.45;;;;;;;17.34;98.18;99468.81;5087962;28;20830;-29
2022/11/20 02:13:57;;;;;;;14.48;4.07;;;;;;;17.36;97.50;99463.94;5087576;28;20513;-34
2022/11/20 02:16:30;;;;;;;9.25;3.63;;;;;;;17.42;96.79;99454.75;5087934;28;20043;-30
2022/11/20 02:18:58;;;;;;;10.15;3.50;;;;;;;17.52;96.25;99443.91;5087758;28;20198;-33
2022/11/20 02:21:34;;;;;;;10.20;4.00;;;;;;;17.47;96.40;99452.03;5087811;28;20024;-29
2022/11/20 02:24:07;;;;;;;8.15;3.08;;;;;;;17.57;95.52;99451.97;5069213;28;20054;-30
2022/11/20 02:26:40;;;;;;;10.45;3.92;;;;;;;17.44;95.32;99433.72;5069191;28;20088;-30
2022/11/20 02:29:06;;;;;;;12.68;2.85;;;;;;;17.50;94.54;99435.28;5069617;28;20038;-29
2022/11/20 02:31:37;;;;;;;10.90;3.50;;;;;;;17.69;94.12;99448.91;5069172;28;20028;-32
2022/11/20 02:34:02;;;;;;;9.90;3.92;;;;;;;17.58;93.31;99431.19;5087352;28;20116;-29
2022/11/20 02:36:31;;;;;;;12.52;4.63;;;;;;;17.77;92.97;99456.38;5087028;28;20028;-29
2022/11/20 02:38:57;;;;;;;10.20;3.22;;;;;;;17.67;91.46;99430.31;5087304;28;20049;-31
2022/11/20 02:41:30;;;;;;;10.73;3.20;;;;;;;17.79;91.54;99453.41;5068798;28;20499;-29
2022/11/20 02:43:56;;;;;;;7.30;2.63;;;;;;;17.72;90.68;99432.16;5087314;28;20038;-30
2022/11/20 02:46:21;;;;;;;9.35;3.28;;;;;;;17.86;91.28;99443.94;5087365;28;20032;-32
2022/11/20 02:48:47;;;;;;;7.03;2.63;;;;;;;17.59;92.09;99422.84;5087279;28;20049;-31
2022/11/20 02:51:12;;;;;;;9.15;2.80;;;;;;;17.69;92.15;99438.09;5087172;28;20032;-36
2022/11/20 02:53:37;;;;;;;9.23;2.67;;;;;;;17.59;92.55;99443.56;5087262;28;20031;-31
2022/11/20 02:56:03;;;;;;;16.17;2.63;;;;;;;17.54;92.48;99449.81;5086777;28;20028;-30
2022/11/20 02:58:28;;;;;;;7.93;2.45;;;;;;;17.68;90.51;99440.00;5087377;28;20139;-29
2022/11/20 03:00:54;;;;;;;8.68;2.60;;;;;;;17.71;90.11;99440.53;5087517;28;20491;-28
2022/11/20 03:03:19;;;;;;;8.82;3.08;;;;;;;17.72;90.09;99440.25;5068920;28;20035;-28
2022/11/20 03:05:45;;;;;;;10.90;3.50;;;;;;;17.81;90.06;99445.84;5087084;28;20028;-29
2022/11/20 03:08:10;;;;;;;12.57;3.30;;;;;;;17.85;89.60;99449.63;5086805;28;20514;-30
2022/11/20 03:10:35;;;;;;;10.07;3.20;;;;;;;17.75;90.54;99446.97;5086561;28;20112;-28
2022/11/20 03:13:01;;;;;;;7.95;2.55;;;;;;;17.66;90.34;99417.91;5087130;28;20035;-29
2022/11/20 03:15:26;;;;;;;9.40;2.90;;;;;;;17.72;90.67;99440.25;5086558;28;20157;-33
2022/11/20 03:17:55;;;;;;;7.63;2.92;;;;;;;17.67;90.49;99440.28;5086298;28;20533;-30
2022/11/20 03:20:21;;;;;;;8.40;3.00;;;;;;;17.60;90.80;99429.81;5068250;28;20024;-28
2022/11/20 03:22:46;;;;;;;12.90;3.33;;;;;;;17.64;90.35;99430.88;5086420;28;20101;-29
2022/11/20 03:25:12;;;;;;;9.15;3.03;;;;;;;17.74;89.37;99423.81;5086626;28;20824;-30
2022/11/20 03:27:37;;;;;;;7.35;2.58;;;;;;;17.87;89.15;99423.97;5086719;28;20024;-31
2022/11/20 03:30:04;;;;;;;5.20;2.00;;;;;;;17.74;88.91;99423.81;5086323;28;20445;-29
2022/11/20 03:32:29;;;;;;;10.80;2.15;;;;;;;17.72;88.59;99425.97;5086545;28;20189;-34
2022/11/20 03:34:54;;;;;;;8.65;2.35;;;;;;;17.66;89.00;99423.31;5086434;28;20496;-28
2022/11/20 03:37:20;;;;;;;8.25;1.95;;;;;;;17.80;88.29;99433.47;5070949;28;20044;-27
2022/11/20 03:39:45;;;;;;;7.40;2.40;;;;;;;17.85;87.74;99430.75;5065663;28;20036;-27
2022/11/20 03:42:44;;;;;;;7.00;2.60;;;;;;;17.71;87.94;99422.44;5047961;28;20024;-28
2022/11/20 03:44:56;;;;;;;7.20;2.33;;;;;;;17.74;88.05;99429.19;5065647;28;20476;-29
2022/11/20 03:47:22;;;;;;;9.95;2.22;;;;;;;17.70;88.04;99415.47;5066093;28;20039;-27
2022/11/20 03:49:47;;;;;;;7.93;2.35;;;;;;;17.58;87.55;99415.03;5064544;28;20059;-34
2022/11/20 03:52:13;;;;;;;6.03;2.05;;;;;;;17.74;87.35;99434.59;5065737;28;20033;-30
2022/11/20 03:54:38;;;;;;;8.50;2.22;;;;;;;17.75;87.70;99431.59;5066206;28;20415;-33
2022/11/20 03:57:03;;;;;;;8.15;2.70;;;;;;;17.59;88.75;99416.63;5047652;28;20081;-30
2022/11/20 03:59:29;;;;;;;6.28;2.45;;;;;;;17.63;88.14;99423.06;5065999;28;20025;-32
2022/11/20 04:01:54;;;;;;;9.00;2.50;;;;;;;17.60;88.35;99419.03;5065506;28;20162;-29
2022/11/20 04:04:20;;;;;;;6.65;2.13;;;;;;;17.50;88.24;99413.72;5065636;28;20036;-30
2022/11/20 04:06:45;;;;;;;16.80;3.05;;;;;;;17.56;87.44;99407.22;5065492;28;20028;-33
2022/11/20 04:09:10;;;;;;;6.97;2.45;;;;;;;17.72;87.53;99404.41;5047482;28;20032;-29
2022/11/20 04:11:39;;;;;;;7.82;2.63;;;;;;;17.50;88.28;99392.16;5065619;28;20020;-28
2022/11/20 04:14:11;;;;;;;5.20;2.00;;;;;;;17.56;88.28;99427.97;5047387;28;20557;-31
2022/11/20 04:16:36;;;;;;;8.90;2.80;;;;;;;17.62;87.72;99427.66;5065706;28;20052;-28
2022/11/20 04:19:05;;;;;;;6.53;2.30;;;;;;;17.53;87.26;99407.78;5065553;28;20037;-28
2022/11/20 04:21:30;;;;;;;10.68;2.22;;;;;;;17.51;86.78;99403.72;5065454;28;20032;-30
2022/11/20 04:23:57;;;;;;;7.78;3.00;;;;;;;17.64;86.36;99425.47;5065362;28;20042;-28
2022/11/20 04:26:24;;;;;;;6.82;2.63;;;;;;;17.56;86.79;99423.38;5065552;28;20024;-30
2022/11/20 04:28:50;;;;;;;8.10;2.60;;;;;;;17.68;85.98;99421.13;5065454;28;20028;-32
2022/11/20 04:31:18;;;;;;;6.45;2.30;;;;;;;17.50;86.64;99408.34;5065746;28;20419;-32
2022/11/20 04:33:44;;;;;;;6.78;2.25;;;;;;;17.62;86.45;99427.66;5046896;28;20036;-29
2022/11/20 04:36:15;;;;;;;6.13;1.73;;;;;;;17.61;86.17;99426.06;5047680;28;20443;-31
2022/11/20 04:38:41;;;;;;;7.30;2.13;;;;;;;17.51;87.12;99406.44;5047440;28;20037;-34
2022/11/20 04:41:09;;;;;;;8.68;2.50;;;;;;;17.44;87.62;99418.34;5065488;28;20150;-31
2022/11/20 04:43:35;;;;;;;5.97;1.90;;;;;;;17.45;87.63;99428.03;5047360;28;20043;-30
2022/11/20 04:46:01;;;;;;;8.18;2.60;;;;;;;17.49;87.63;99422.91;5064979;28;20911;-31
2022/11/20 04:48:28;;;;;;;9.30;2.65;;;;;;;17.43;87.73;99419.44;5065050;28;20492;-29
2022/11/20 04:50:55;;;;;;;6.05;2.40;;;;;;;17.53;86.97;99401.56;5064943;28;20047;-29
2022/11/20 04:53:21;;;;;;;7.45;2.90;;;;;;;17.58;86.41;99409.63;5065365;28;20036;-35
2022/11/20 04:55:47;;;;;;;7.93;2.22;;;;;;;17.67;86.48;99430.31;5047212;28;20491;-28
2022/11/20 04:58:13;;;;;;;10.60;3.70;;;;;;;17.60;86.28;99402.84;5065333;28;20024;-31
2022/11/20 05:00:39;;;;;;;9.25;3.08;;;;;;;17.71;86.87;99417.06;5049382;28;20625;-29
2022/11/20 05:03:04;;;;;;;11.93;3.80;;;;;;;17.66;86.30;99411.72;5068961;28;20036;-29
2022/11/20 05:05:30;;;;;;;12.18;9.57;;;;;;;17.85;86.05;99419.94;5051258;28;20025;-29
2022/11/20 05:07:57;;;;;;;7.78;2.50;;;;;;;17.77;86.50;99412.44;5069250;28;20102;-30
2022/11/20 05:10:23;;;;;;;4.40;2.65;;;;;;;17.66;86.11;99400.94;5068959;28;20028;-32
2022/11/20 05:12:49;;;;;;;8.43;2.55;;;;;;;17.75;85.53;99420.00;5050782;28;20948;-28
2022/11/20 05:15:14;;;;;;;7.03;2.78;;;;;;;17.83;85.23;99419.44;5068905;28;20028;-29
2022/11/20 05:17:40;;;;;;;7.90;2.85;;;;;;;17.90;84.54;99437.97;5050657;28;20097;-28
2022/11/20 05:20:06;;;;;;;7.50;2.80;;;;;;;17.80;84.67;99441.56;5050651;28;20055;-32
2022/11/20 05:22:31;;;;;;;8.02;2.67;;;;;;;17.99;83.46;99430.91;5069294;28;20032;-33
2022/11/20 05:24:57;;;;;;;7.50;3.38;;;;;;;18.04;83.08;99431.66;5068778;28;20431;-29
2022/11/20 05:27:22;;;;;;;7.20;2.60;;;;;;;17.99;83.36;99431.69;5068780;28;20424;-28
2022/11/20 05:29:47;;;;;;;6.65;2.55;;;;;;;18.02;83.30;99441.94;5068188;28;20071;-30
2022/11/20 05:32:13;;;;;;;6.47;2.38;;;;;;;18.04;83.08;99445.16;5068428;28;20024;-29
2022/11/20 05:34:38;;;;;;;7.28;2.35;;;;;;;18.19;82.52;99446.09;5068438;28;20173;-34
2022/11/20 05:37:04;;;;;;;8.80;3.33;;;;;;;18.20;82.21;99426.09;5068599;28;20071;-29
2022/11/20 05:39:29;;;;;;;7.68;2.40;;;;;;;18.19;82.83;99425.31;5068361;28;20055;-30
2022/11/20 05:44:38;;;;;;;7.47;3.78;;;;;;;18.27;82.40;99442.78;5067960;28;20462;-31
2022/11/20 05:47:05;;;;;;;9.00;4.00;;;;;;;18.23;81.99;99417.47;5050231;28;20028;-29
2022/11/20 05:49:30;;;;;;;6.88;2.20;;;;;;;18.29;81.90;99435.22;5049616;28;20044;-28
2022/11/20 05:51:56;;;;;;;11.13;3.22;;;;;;;18.23;81.92;99430.94;5068173;28;20432;-27
2022/11/20 05:54:21;;;;;;;10.40;3.83;;;;;;;18.28;81.74;99447.09;5068210;28;20032;-29
2022/11/20 05:56:46;;;;;;;18.67;7.35;;;;;;;18.45;81.22;99447.47;5068201;28;20025;-31
2022/11/20 05:59:12;;;;;;;13.88;6.78;;;;;;;18.50;81.15;99445.78;5067908;28;20032;-28
2022/11/20 06:01:37;;;;;;;7.65;2.60;;;;;;;18.30;80.71;99436.81;5067829;28;20090;-32
2022/11/20 06:04:03;;;;;;;5.85;1.85;;;;;;;18.41;81.04;99448.31;5068042;28;20029;-29
2022/11/20 06:06:28;;;;;;;7.70;1.90;;;;;;;18.42;81.09;99444.53;5049757;28;20029;-34
2022/11/20 06:08:55;;;;;;;9.45;3.33;;;;;;;18.52;80.89;99449.00;5068375;28;20051;-29
2022/11/20 06:11:20;;;;;;;8.70;2.50;;;;;;;18.24;82.96;99435.25;5048719;28;20021;-33
2022/11/20 06:13:46;;;;;;;8.57;2.97;;;;;;;18.39;82.42;99450.50;5049337;28;20036;-31
2022/11/20 06:16:15;;;;;;;9.98;3.00;;;;;;;18.36;82.67;99451.84;5049606;28;20020;-29
2022/11/20 06:18:40;;;;;;;7.85;3.15;;;;;;;18.37;82.12;99455.34;5067949;28;20059;-34
2022/11/20 06:21:20;;;;;;;7.57;2.45;;;;;;;18.44;82.15;99469.34;5067572;28;20032;-29
2022/11/20 06:23:46;;;;;;;12.00;3.80;;;;;;;18.18;83.36;99447.19;5067403;28;20111;-29
2022/11/20 06:26:18;;;;;;;8.80;2.63;;;;;;;18.33;84.68;99465.94;5067376;28;20559;-28
2022/11/20 06:28:44;;;;;;;8.05;2.10;;;;;;;18.26;85.58;99468.16;5049544;28;20466;-29
2022/11/20 06:31:11;;;;;;;7.13;2.25;;;;;;;18.30;85.55;99463.78;5067210;28;20025;-32
2022/11/20 06:33:37;;;;;;;10.20;2.65;;;;;;;18.19;86.45;99483.88;5067659;28;20032;-30
2022/11/20 06:36:03;;;;;;;6.85;2.67;;;;;;;18.16;86.67;99477.13;5067176;28;20043;-31
2022/11/20 06:38:28;;;;;;;7.75;2.40;;;;;;;18.07;85.93;99474.25;5067308;28;20572;-28
2022/11/20 06:40:54;;;;;;;9.98;2.53;;;;;;;18.23;85.88;99488.44;5067119;28;20056;-29
2022/11/20 06:43:20;;;;;;;6.53;2.28;;;;;;;18.32;85.75;99494.00;5049232;28;20059;-31
2022/11/20 06:45:46;;;;;;;9.80;2.85;;;;;;;18.25;85.42;99482.75;5048900;28;20086;-28
2022/11/20 06:48:11;;;;;;;6.22;2.03;;;;;;;18.42;84.55;99491.22;5080053;28;20115;-31
2022/11/20 06:50:37;;;;;;;6.47;2.60;;;;;;;18.51;84.52;99487.88;5068817;28;20044;-33
2022/11/20 06:53:04;;;;;;;5.18;1.98;;;;;;;18.55;84.79;99494.31;5087030;28;20479;-31
2022/11/20 06:55:30;;;;;;;7.38;2.20;;;;;;;18.58;84.87;99488.38;5068469;28;20028;-28
2022/11/20 06:57:56;;;;;;;7.88;2.22;;;;;;;18.39;85.02;99486.41;5068607;28;20020;-29
2022/11/20 07:00:21;;;;;;;7.57;2.10;;;;;;;18.56;84.38;99498.66;5087044;28;20062;-29
2022/11/20 07:02:47;;;;;;;6.30;2.10;;;;;;;18.41;83.53;99476.13;5087202;28;20035;-29
2022/11/20 07:05:12;;;;;;;5.88;2.22;;;;;;;18.51;83.67;99496.81;5068427;28;20047;-29
2022/11/20 07:07:38;;;;;;;8.70;2.17;;;;;;;18.65;82.83;99499.63;5086716;28;20047;-30
2022/11/20 07:10:04;;;;;;;5.55;2.03;;;;;;;18.86;81.20;99503.75;5068060;28;20038;-31
2022/11/20 07:12:29;;;;;;;8.02;2.38;;;;;;;18.76;81.47;99503.84;5086875;28;20531;-28
2022/11/20 07:14:54;;;;;;;5.15;2.03;;;;;;;18.75;80.31;99480.59;5068634;28;20051;-28
2022/11/20 07:17:20;;;;;;;5.93;2.22;;;;;;;18.78;79.72;99480.06;5086852;28;20032;-29
2022/11/20 07:19:45;;;;;;;8.68;2.40;;;;;;;18.87;79.66;99483.75;5086695;28;20023;-28
2022/11/20 07:22:11;;;;;;;7.43;2.15;;;;;;;18.99;80.34;99506.88;5086607;28;20865;-29
2022/11/20 07:24:36;;;;;;;7.07;2.58;;;;;;;19.07;80.00;99484.59;5068222;28;20111;-30
2022/11/20 07:27:01;;;;;;;7.60;2.33;;;;;;;18.94;80.12;99486.13;5086626;28;20126;-28
2022/11/20 07:29:27;;;;;;;6.65;2.35;;;;;;;19.04;79.87;99504.91;5087153;28;20110;-28
2022/11/20 07:31:52;;;;;;;6.95;2.22;;;;;;;19.09;80.00;99498.63;5086189;28;20059;-29
2022/11/20 07:34:18;;;;;;;9.85;3.38;;;;;;;19.14;80.33;99486.94;5086599;28;20028;-29
2022/11/20 07:36:43;;;;;;;7.53;2.20;;;;;;;19.03;81.60;99499.78;5086346;28;20114;-33
2022/11/20 07:39:08;;;;;;;9.73;3.20;;;;;;;19.03;81.79;99508.69;5086569;28;20102;-34
2022/11/20 07:41:34;;;;;;;8.73;3.15;;;;;;;19.16;82.16;99501.78;5067890;28;20032;-31
2022/11/20 07:43:59;;;;;;;9.70;2.80;;;;;;;18.99;82.36;99496.84;5086169;28;20070;-32
2022/11/20 07:46:25;;;;;;;8.05;2.63;;;;;;;19.10;82.45;99508.34;5068071;28;20025;-28
2022/11/20 07:48:50;;;;;;;8.45;2.53;;;;;;;19.01;83.01;99505.47;5085623;28;20056;-30
2022/11/20 07:51:16;;;;;;;9.23;2.67;;;;;;;19.23;82.40;99501.44;5086255;28;20402;-29
2022/11/20 07:53:42;;;;;;;13.02;3.47;;;;;;;19.21;82.94;99511.75;5085503;28;20059;-32
2022/11/20 07:56:07;;;;;;;7.50;2.58;;;;;;;19.34;82.46;99512.91;5086137;28;20028;-29
2022/11/20 07:58:34;;;;;;;10.07;3.15;;;;;;;19.15;82.15;99505.59;5086061;28;20196;-30
2022/11/20 08:01:07;;;;;;;8.18;2.20;;;;;;;19.20;82.74;99516.31;5086253;28;20035;-29
2022/11/20 08:03:32;;;;;;;9.48;2.58;;;;;;;19.22;82.94;99521.44;5086155;28;20073;-29
2022/11/20 08:06:01;;;;;;;10.15;2.65;;;;;;;19.27;82.71;99508.66;5085739;28;20035;-28
2022/11/20 08:08:28;;;;;;;55.35;9.68;;;;;;;19.33;82.55;99500.47;5085951;28;20032;-31
2022/11/20 08:14:11;;;;;;;18.30;11.77;;;;;;;19.31;82.73;99491.84;5085868;28;20031;-30
2022/11/20 08:16:33;;;;;;;23.15;11.00;;;;;;;19.12;84.27;99495.34;5061678;28;20094;-31
2022/11/20 08:18:59;;;;;;;14.07;7.10;;;;;;;19.14;84.58;99512.06;5086147;28;20066;-29
2022/11/20 08:21:24;;;;;;;13.80;6.20;;;;;;;19.14;84.47;99503.97;5085938;28;20032;-29
2022/11/20 08:23:50;;;;;;;15.18;8.05;;;;;;;19.05;85.28;99501.09;5085582;28;20028;-31
2022/11/20 08:26:15;;;;;;;16.20;6.97;;;;;;;18.99;85.93;99512.25;5067501;28;20479;-28
2022/11/20 08:28:40;;;;;;;27.60;11.15;;;;;;;18.85;86.63;99502.13;5085792;28;20415;-29
2022/11/20 08:31:06;;;;;;;25.92;14.13;;;;;;;18.84;87.00;99508.66;5085413;28;20118;-27
2022/11/20 08:33:32;;;;;;;11.63;4.80;;;;;;;18.93;86.36;99508.00;5067683;28;20031;-31
2022/11/20 08:36:05;;;;;;;15.98;7.00;;;;;;;18.94;86.14;99505.03;5069706;28;20024;-29
2022/11/20 08:38:31;;;;;;;17.63;7.13;;;;;;;18.80;86.56;99494.09;5071441;28;20082;-28
2022/11/20 08:43:45;;;;;;;14.45;4.45;;;;;;;18.74;87.36;99499.81;5089422;28;20521;-30
2022/11/20 08:46:11;;;;;;;11.85;4.45;;;;;;;18.84;87.17;99492.44;5089963;28;20020;-29
2022/11/20 08:48:37;;;;;;;22.52;10.55;;;;;;;18.79;87.75;99487.06;5089445;28;20051;-29
2022/11/20 08:51:03;;;;;;;12.40;4.03;;;;;;;18.63;88.98;99493.72;5089713;28;20714;-28
2022/11/20 08:53:28;;;;;;;10.73;3.67;;;;;;;18.73;88.65;99490.91;5089426;28;20051;-32
2022/11/20 08:55:53;;;;;;;12.23;3.15;;;;;;;18.76;88.38;99490.34;5089277;28;20028;-29
2022/11/20 08:58:19;;;;;;;14.07;4.03;;;;;;;18.85;88.09;99494.03;5089294;28;20035;-28
2022/11/20 09:00:44;;;;;;;10.32;2.92;;;;;;;18.79;87.67;99476.28;5089642;28;20032;-33
2022/11/20 09:03:09;;;;;;;23.23;9.10;;;;;;;18.81;88.11;99494.91;5089649;28;20038;-33
2022/11/20 09:05:35;;;;;;;27.70;11.80;;;;;;;18.72;87.42;99467.69;5089348;28;20557;-29
2022/11/20 09:08:00;;;;;;;11.00;3.50;;;;;;;18.80;86.55;99475.19;5089349;28;20055;-31
2022/11/20 09:10:27;;;;;;;12.75;4.00;;;;;;;19.00;85.81;99476.84;5089235;28;20039;-30
2022/11/20 09:12:54;;;;;;;10.65;2.80;;;;;;;19.08;86.14;99483.50;5070968;28;20032;-29
2022/11/20 09:15:20;;;;;;;11.30;3.72;;;;;;;18.99;86.14;99479.84;5070791;28;20028;-33
2022/11/20 09:18:00;;;;;;;12.65;2.88;;;;;;;19.05;85.45;99475.97;5089132;28;20483;-28
2022/11/20 09:20:28;;;;;;;12.13;3.35;;;;;;;19.15;85.78;99485.88;5089351;28;20546;-36
2022/11/20 09:22:53;;;;;;;12.45;3.78;;;;;;;19.13;85.73;99471.84;5089159;28;20040;-29
2022/11/20 09:25:19;;;;;;;12.88;3.42;;;;;;;19.19;85.83;99471.47;5088917;28;20731;-29
2022/11/20 09:27:45;;;;;;;8.98;3.08;;;;;;;19.34;84.53;99462.34;5089008;28;20028;-29
2022/11/20 09:30:12;;;;;;;10.23;3.88;;;;;;;19.33;84.23;99444.53;5088937;28;20031;-28
2022/11/20 09:32:42;;;;;;;18.17;5.73;;;;;;;19.56;83.52;99456.34;5088948;28;20039;-28
2022/11/20 09:35:08;;;;;;;11.60;3.67;;;;;;;19.59;83.24;99453.06;5088929;28;20106;-28
2022/11/20 09:37:34;;;;;;;16.13;5.05;;;;;;;19.95;82.48;99447.13;5088952;28;20099;-29
2022/11/20 09:39:59;;;;;;;15.95;6.45;;;;;;;20.21;80.54;99427.75;5088410;28;20115;-28
2022/11/20 09:42:37;;;;;;;15.32;3.75;;;;;;;20.82;77.74;99434.72;5070657;28;20066;-32
2022/11/20 09:45:05;;;;;;;13.13;4.82;;;;;;;21.40;75.16;99432.41;5088813;28;20028;-32
2022/11/20 09:47:36;;;;;;;16.80;6.18;;;;;;;21.72;75.68;99436.00;5069013;28;20043;-32
2022/11/20 09:50:02;;;;;;;12.40;4.43;;;;;;;22.16;72.57;99440.59;5087848;28;20056;-31
2022/11/20 09:52:36;;;;;;;10.65;2.97;;;;;;;21.74;71.10;99441.94;5088405;28;20024;-31
2022/11/20 09:55:08;;;;;;;8.90;3.17;;;;;;;21.73;72.49;99443.06;5088651;28;20077;-30
2022/11/20 09:57:40;;;;;;;12.88;3.20;;;;;;;21.73;72.17;99429.47;5088456;28;20115;-29
2022/11/20 10:00:12;;;;;;;10.10;3.70;;;;;;;22.17;70.35;99414.25;5088068;28;20032;-31
2022/11/20 10:03:01;;;;;;;15.88;4.18;;;;;;;22.60;66.36;99432.69;5069727;28;20032;-33
2022/11/20 10:05:40;;;;;;;14.93;4.60;;;;;;;22.14;68.04;99420.31;5088296;28;20154;-29
2022/11/20 10:08:39;;;;;;;11.38;3.50;;;;;;;22.10;67.86;99430.19;5088144;28;20028;-31
2022/11/20 10:11:13;;;;;;;9.30;1.90;;;;;;;21.79;64.43;99404.63;5069679;28;20036;-29
2022/11/20 10:13:57;;;;;;;11.50;2.45;;;;;;;22.13;65.45;99421.41;5088094;28;20035;-29
2022/11/20 10:16:28;;;;;;;10.23;2.25;;;;;;;22.01;66.00;99422.81;5088167;28;20089;-28
2022/11/20 10:18:59;;;;;;;12.07;2.88;;;;;;;21.77;65.38;99422.31;5087847;28;20024;-30
2022/11/20 10:22:00;;;;;;;10.45;2.08;;;;;;;21.50;66.17;99421.34;5069523;28;20123;-31
2022/11/20 10:24:50;;;;;;;8.95;1.90;;;;;;;21.39;66.65;99415.31;5070057;28;20032;-31
2022/11/20 10:27:37;;;;;;;11.50;2.67;;;;;;;21.27;65.98;99420.50;5087742;28;20568;-28
2022/11/20 10:30:07;;;;;;;6.05;2.15;;;;;;;21.13;67.83;99415.09;5087576;28;20028;-30
2022/11/20 10:32:43;;;;;;;9.23;2.42;;;;;;;21.40;67.29;99421.53;5069372;28;20038;-29
2022/11/20 10:35:28;;;;;;;10.90;2.83;;;;;;;21.50;67.20;99417.84;5087961;28;20047;-35
2022/11/20 10:38:00;;;;;;;15.07;2.63;;;;;;;21.33;68.12;99418.44;5087579;28;20068;-29
2022/11/20 10:40:38;;;;;;;11.10;2.85;;;;;;;21.17;69.16;99409.88;5069021;28;20020;-31
2022/11/20 10:43:16;;;;;;;13.50;2.83;;;;;;;21.20;69.34;99393.78;5069390;28;20100;-31
2022/11/20 10:45:59;;;;;;;15.43;3.15;;;;;;;21.38;68.84;99393.94;5087338;28;20035;-33
2022/11/20 10:48:26;;;;;;;19.00;5.30;;;;;;;21.30;68.71;99365.63;5068827;28;20063;-36
2022/11/20 10:51:13;;;;;;;10.07;2.80;;;;;;;21.36;69.75;99388.81;5086978;28;20044;-29
2022/11/20 10:53:39;;;;;;;;;;;;;;;21.35;71.23;99392.63;5069915;28;20481;-30
2022/11/20 10:56:10;;;;;;;17.63;3.03;;;;;;;21.23;73.16;99390.47;5086689;28;19948;-33
2022/11/20 10:58:42;;;;;;;16.90;6.78;;;;;;;21.23;71.32;99381.53;5087157;28;20266;-32
2022/11/20 11:01:17;;;;;;;13.35;2.72;;;;;;;21.26;71.57;99384.41;5086982;28;20036;-30
2022/11/20 11:03:43;;;;;;;16.27;2.78;;;;;;;21.24;70.53;99367.66;5086924;28;20027;-30
2022/11/20 11:06:20;;;;;;;16.08;3.92;;;;;;;21.30;70.91;99359.41;5068720;28;20482;-32
2022/11/20 11:08:47;;;;;;;13.65;3.28;;;;;;;21.45;69.41;99372.63;5068801;28;20043;-28
2022/11/20 11:11:20;;;;;;;15.40;3.42;;;;;;;21.58;69.88;99371.78;5086708;28;20792;-29
2022/11/20 11:13:45;;;;;;;13.57;4.10;;;;;;;21.50;70.41;99367.09;5068123;28;20078;-28
2022/11/20 11:16:26;;;;;;;19.15;5.45;;;;;;;21.58;69.84;99360.13;5087003;28;20548;-28
2022/11/20 11:18:52;;;;;;;21.77;4.13;;;;;;;21.79;68.97;99350.34;5086869;28;20050;-30
2022/11/20 11:21:25;;;;;;;13.65;3.10;;;;;;;21.79;68.91;99330.53;5068038;28;20482;-35
2022/11/20 11:24:00;;;;;;;14.73;2.45;;;;;;;22.38;67.31;99339.28;5068083;28;20036;-30
2022/11/20 11:26:26;;;;;;;12.23;3.08;;;;;;;22.68;65.19;99342.25;5067977;28;20031;-30
2022/11/20 11:29:02;;;;;;;18.70;3.50;;;;;;;22.50;67.02;99329.72;5068655;28;20032;-30
2022/11/20 11:31:31;;;;;;;13.93;2.75;;;;;;;22.43;66.97;99320.13;5086770;28;20111;-29
2022/11/20 11:34:15;;;;;;;16.45;3.35;;;;;;;22.51;65.67;99340.25;5086843;28;20028;-29
2022/11/20 11:36:41;;;;;;;17.60;3.25;;;;;;;22.82;65.06;99310.28;5086326;28;20016;-29
2022/11/20 11:39:15;;;;;;;18.38;3.60;;;;;;;22.95;65.41;99307.72;5068109;28;20031;-30
2022/11/20 11:41:41;;;;;;;15.88;3.33;;;;;;;22.95;62.67;99313.16;5086391;28;20028;-31
2022/11/20 11:47:06;;;;;;;22.35;3.38;;;;;;;23.72;61.22;99319.66;5086292;28;20048;-30